Time;durP1;ratioP1;P1;durP2;ratioP2;P2;SDS_P1;SDS_P2;PMS_P1;PMS_P2;Temp;Humidity;BMP_temperature;BMP_pressure;BME280_temperature;BME280_humidity;BME280_pressure;Samples;Min_cycle;Max_cycle;Signal;HPM_P1;HPM_P2
2024/01/05 00:00:03;;;;;;;0.30;0.30;;;;;;;;;;4968996;28;20260;-72
2024/01/05 00:02:30;;;;;;;0.30;0.30;;;;;;;;;;4963975;28;20253;-73
2024/01/05 00:04:56;;;;;;;0.30;0.30;;;;;;;;;;4968729;28;20238;-72
2024/01/05 00:07:22;;;;;;;0.30;0.30;;;;;;;;;;4967076;28;20248;-72
2024/01/05 00:09:49;;;;;;;0.20;0.20;;;;;;;;;;4971750;28;20237;-72
2024/01/05 00:12:15;;;;;;;0.30;0.30;;;;;;;;;;4969822;28;20229;-72
2024/01/05 00:14:41;;;;;;;0.30;0.30;;;;;;;;;;4967466;28;20416;-72
2024/01/05 00:17:08;;;;;;;0.30;0.30;;;;;;;;;;4966392;28;20229;-72
2024/01/05 00:19:34;;;;;;;0.30;0.30;;;;;;;;;;4967889;28;20225;-72
2024/01/05 00:22:01;;;;;;;0.30;0.30;;;;;;;;;;4971493;28;20236;-72
2024/01/05 00:24:28;;;;;;;0.20;0.20;;;;;;;;;;4967884;28;20612;-73
2024/01/05 00:26:54;;;;;;;0.20;0.20;;;;;;;;;;4969307;28;20283;-72
2024/01/05 00:29:20;;;;;;;0.40;0.40;;;;;;;;;;4969831;28;20229;-72
2024/01/05 00:31:47;;;;;;;0.30;0.30;;;;;;;;;;4969642;28;20233;-72
2024/01/05 00:34:14;;;;;;;0.30;0.30;;;;;;;;;;4986050;28;20238;-72
2024/01/05 00:36:41;;;;;;;0.30;0.30;;;;;;;;;;4969157;28;20767;-72
2024/01/05 00:39:08;;;;;;;0.30;0.30;;;;;;;;;;4978063;28;20256;-72
2024/01/05 00:41:34;;;;;;;0.30;0.30;;;;;;;;;;4974893;28;20242;-72
2024/01/05 00:44:00;;;;;;;0.20;0.20;;;;;;;;;;4977974;28;20241;-72
2024/01/05 00:46:27;;;;;;;0.30;0.30;;;;;;;;;;4972737;28;20596;-72
2024/01/05 00:48:53;;;;;;;0.30;0.30;;;;;;;;;;4967450;28;20233;-74
2024/01/05 00:51:20;;;;;;;0.43;0.43;;;;;;;;;;4970881;28;20225;-72
2024/01/05 00:53:47;;;;;;;0.30;0.30;;;;;;;;;;4973947;28;20295;-72
2024/01/05 00:56:13;;;;;;;0.30;0.30;;;;;;;;;;4974198;28;20229;-71
2024/01/05 00:58:39;;;;;;;0.30;0.30;;;;;;;;;;4973694;28;20229;-74
2024/01/05 01:01:06;;;;;;;0.20;0.20;;;;;;;;;;4969108;28;20744;-73
2024/01/05 01:03:33;;;;;;;0.20;0.20;;;;;;;;;;4967407;28;20233;-72
2024/01/05 01:05:59;;;;;;;0.30;0.30;;;;;;;;;;4973475;28;20267;-72
2024/01/05 01:08:26;;;;;;;0.30;0.30;;;;;;;;;;4969817;28;20229;-74
2024/01/05 01:10:52;;;;;;;0.20;0.20;;;;;;;;;;4970555;28;20256;-73
2024/01/05 01:13:19;;;;;;;0.30;0.30;;;;;;;;;;4972764;28;20240;-72
2024/01/05 01:15:45;;;;;;;0.30;0.30;;;;;;;;;;4999896;28;20328;-73
2024/01/05 01:18:12;;;;;;;0.50;0.50;;;;;;;;;;4971315;28;20221;-72
2024/01/05 01:20:39;;;;;;;0.30;0.30;;;;;;;;;;4973854;28;20232;-72
2024/01/05 01:23:05;;;;;;;0.20;0.20;;;;;;;;;;4972399;28;20240;-72
2024/01/05 01:25:31;;;;;;;0.23;0.23;;;;;;;;;;4972540;28;20225;-72
2024/01/05 01:27:58;;;;;;;0.40;0.40;;;;;;;;;;4974021;28;20233;-72
2024/01/05 01:30:24;;;;;;;0.60;0.60;;;;;;;;;;4969121;28;20613;-71
2024/01/05 01:32:50;;;;;;;0.27;0.27;;;;;;;;;;4970944;28;21125;-71
2024/01/05 01:35:17;;;;;;;0.53;0.53;;;;;;;;;;4969242;28;20241;-71
2024/01/05 01:37:44;;;;;;;0.33;0.33;;;;;;;;;;4970180;28;20229;-71
2024/01/05 01:40:10;;;;;;;0.33;0.33;;;;;;;;;;4970756;28;20234;-71
2024/01/05 01:42:37;;;;;;;0.60;0.60;;;;;;;;;;4971638;28;20237;-72
2024/01/05 01:45:04;;;;;;;0.30;0.30;;;;;;;;;;4970228;28;20234;-71
2024/01/05 01:47:31;;;;;;;0.20;0.20;;;;;;;;;;4970754;28;20307;-71
2024/01/05 01:49:58;;;;;;;0.20;0.20;;;;;;;;;;4971749;28;20241;-71
2024/01/05 01:52:26;;;;;;;0.47;0.47;;;;;;;;;;4970758;28;20314;-71
2024/01/05 01:54:53;;;;;;;0.40;0.40;;;;;;;;;;4971354;28;20248;-71
2024/01/05 01:57:19;;;;;;;0.83;0.83;;;;;;;;;;4973759;28;20225;-72
2024/01/05 01:59:46;;;;;;;0.40;0.40;;;;;;;;;;4974433;28;20225;-71
2024/01/05 02:02:13;;;;;;;0.30;0.30;;;;;;;;;;4973613;28;20222;-70
2024/01/05 02:04:41;;;;;;;0.50;0.50;;;;;;;;;;4974159;28;20250;-71
2024/01/05 02:07:08;;;;;;;0.40;0.40;;;;;;;;;;4973238;28;20721;-71
2024/01/05 02:09:34;;;;;;;0.90;0.90;;;;;;;;;;4968649;28;20604;-71
2024/01/05 02:12:02;;;;;;;0.30;0.30;;;;;;;;;;4972453;28;20725;-71
2024/01/05 02:17:33;;;;;;;0.33;0.33;;;;;;;;;;4968424;28;20240;-72
2024/01/05 02:20:01;;;;;;;0.30;0.30;;;;;;;;;;4968842;28;20637;-71
2024/01/05 02:22:29;;;;;;;0.30;0.30;;;;;;;;;;4968841;28;20312;-71
2024/01/05 02:24:59;;;;;;;0.20;0.20;;;;;;;;;;4969340;28;20254;-71
2024/01/05 02:27:26;;;;;;;0.20;0.20;;;;;;;;;;4971698;28;20233;-71
2024/01/05 02:29:53;;;;;;;0.37;0.37;;;;;;;;;;4974168;28;20221;-71
2024/01/05 02:32:20;;;;;;;0.30;0.30;;;;;;;;;;4973726;28;20742;-71
2024/01/05 02:34:46;;;;;;;0.20;0.20;;;;;;;;;;4974913;28;20280;-71
2024/01/05 02:37:13;;;;;;;0.30;0.30;;;;;;;;;;4969517;28;20221;-71
2024/01/05 02:39:39;;;;;;;0.20;0.20;;;;;;;;;;4971360;28;20319;-71
2024/01/05 02:42:06;;;;;;;0.30;0.30;;;;;;;;;;4963702;28;20242;-72
2024/01/05 02:44:32;;;;;;;2.17;0.60;;;;;;;;;;4967885;28;20237;-71
2024/01/05 02:46:59;;;;;;;0.30;0.30;;;;;;;;;;4966877;28;20233;-71
2024/01/05 02:49:25;;;;;;;0.20;0.20;;;;;;;;;;4971016;28;20240;-71
2024/01/05 02:51:51;;;;;;;0.30;0.30;;;;;;;;;;4971429;28;20662;-71
2024/01/05 02:54:18;;;;;;;0.30;0.30;;;;;;;;;;4970903;28;20234;-71
2024/01/05 02:56:45;;;;;;;0.30;0.30;;;;;;;;;;4969652;28;20230;-73
2024/01/05 02:59:12;;;;;;;0.30;0.30;;;;;;;;;;4968337;28;20587;-70
2024/01/05 03:01:38;;;;;;;0.40;0.40;;;;;;;;;;4969852;28;20233;-70
2024/01/05 03:04:05;;;;;;;0.20;0.20;;;;;;;;;;4969004;28;20241;-73
2024/01/05 03:06:32;;;;;;;0.30;0.30;;;;;;;;;;4974342;28;20303;-70
2024/01/05 03:08:59;;;;;;;0.30;0.30;;;;;;;;;;4973437;28;20678;-70
2024/01/05 03:11:48;;;;;;;0.30;0.30;;;;;;;;;;4983175;28;20228;-72
2024/01/05 03:14:15;;;;;;;0.30;0.30;;;;;;;;;;4965687;28;20248;-75
2024/01/05 03:16:42;;;;;;;0.30;0.30;;;;;;;;;;4976021;28;20241;-70
2024/01/05 03:19:09;;;;;;;0.30;0.30;;;;;;;;;;4987578;28;20238;-68
2024/01/05 03:21:35;;;;;;;0.30;0.30;;;;;;;;;;4985008;28;20431;-71
2024/01/05 03:24:02;;;;;;;0.30;0.30;;;;;;;;;;5002723;28;20604;-71
2024/01/05 03:26:28;;;;;;;0.30;0.30;;;;;;;;;;4971938;28;20234;-71
2024/01/05 03:28:55;;;;;;;0.30;0.30;;;;;;;;;;4968547;28;20236;-71
2024/01/05 03:31:22;;;;;;;0.20;0.20;;;;;;;;;;5001480;28;20729;-71
2024/01/05 03:33:49;;;;;;;0.30;0.30;;;;;;;;;;4970312;28;20247;-71
2024/01/05 03:36:16;;;;;;;0.30;0.30;;;;;;;;;;4969544;28;20852;-71
2024/01/05 03:38:42;;;;;;;0.40;0.40;;;;;;;;;;4968400;28;20730;-71
2024/01/05 03:41:09;;;;;;;0.60;0.60;;;;;;;;;;5001973;28;20313;-71
2024/01/05 03:43:35;;;;;;;0.73;0.73;;;;;;;;;;4967163;28;20241;-71
2024/01/05 03:46:02;;;;;;;0.30;0.30;;;;;;;;;;4968481;28;20229;-72
2024/01/05 03:48:28;;;;;;;0.40;0.40;;;;;;;;;;4967911;28;20245;-72
2024/01/05 03:50:55;;;;;;;0.30;0.30;;;;;;;;;;4973211;28;20335;-71
2024/01/05 03:53:22;;;;;;;0.20;0.20;;;;;;;;;;4972459;28;20228;-71
2024/01/05 03:55:48;;;;;;;0.30;0.30;;;;;;;;;;4968276;28;20240;-72
2024/01/05 03:58:15;;;;;;;0.30;0.30;;;;;;;;;;4969905;28;20245;-71
2024/01/05 04:00:42;;;;;;;0.30;0.30;;;;;;;;;;4968627;28;20316;-71
2024/01/05 04:03:08;;;;;;;0.30;0.30;;;;;;;;;;4964608;28;20226;-71
2024/01/05 04:05:35;;;;;;;0.30;0.30;;;;;;;;;;4967245;28;20325;-71
2024/01/05 04:08:03;;;;;;;0.30;0.30;;;;;;;;;;4964623;28;20653;-72
2024/01/05 04:10:29;;;;;;;0.43;0.43;;;;;;;;;;4968505;28;20225;-72
2024/01/05 04:12:55;;;;;;;0.30;0.30;;;;;;;;;;4969155;28;20233;-71
2024/01/05 04:15:22;;;;;;;0.30;0.30;;;;;;;;;;4970624;28;20242;-71
2024/01/05 04:17:48;;;;;;;0.30;0.30;;;;;;;;;;4970011;28;20236;-72
2024/01/05 04:20:15;;;;;;;0.30;0.30;;;;;;;;;;4971781;28;20247;-71
2024/01/05 04:22:41;;;;;;;0.30;0.30;;;;;;;;;;4962007;28;20242;-71
2024/01/05 04:25:08;;;;;;;0.30;0.30;;;;;;;;;;4969624;28;20252;-72
2024/01/05 04:27:34;;;;;;;0.40;0.40;;;;;;;;;;4968773;28;20655;-74
2024/01/05 04:30:01;;;;;;;0.20;0.20;;;;;;;;;;4967777;28;20730;-74
2024/01/05 04:32:27;;;;;;;0.30;0.30;;;;;;;;;;4986170;28;20263;-74
2024/01/05 04:34:54;;;;;;;0.30;0.30;;;;;;;;;;4972540;28;22360;-71
2024/01/05 04:37:21;;;;;;;0.20;0.20;;;;;;;;;;4972190;28;20240;-70
2024/01/05 04:39:47;;;;;;;0.30;0.30;;;;;;;;;;4974765;28;20755;-73
2024/01/05 04:42:14;;;;;;;0.30;0.30;;;;;;;;;;4973880;28;20224;-71
2024/01/05 04:44:41;;;;;;;0.30;0.30;;;;;;;;;;4972715;28;20237;-73
2024/01/05 04:47:07;;;;;;;0.27;0.27;;;;;;;;;;4972271;28;20240;-71
2024/01/05 04:49:34;;;;;;;0.30;0.30;;;;;;;;;;4972009;28;20233;-70
2024/01/05 04:52:01;;;;;;;0.30;0.30;;;;;;;;;;4965797;28;20277;-72
2024/01/05 04:54:28;;;;;;;0.30;0.30;;;;;;;;;;4962265;28;20237;-73
2024/01/05 04:56:55;;;;;;;0.30;0.30;;;;;;;;;;4961814;28;20384;-71
2024/01/05 04:59:22;;;;;;;0.30;0.30;;;;;;;;;;4968049;28;20257;-71
2024/01/05 05:01:48;;;;;;;0.30;0.30;;;;;;;;;;4967669;28;20238;-71
2024/01/05 05:04:17;;;;;;;0.30;0.30;;;;;;;;;;4966395;28;20241;-73
2024/01/05 05:06:44;;;;;;;0.30;0.30;;;;;;;;;;4964443;28;20244;-71
2024/01/05 05:09:11;;;;;;;0.20;0.20;;;;;;;;;;4962065;28;20233;-73
2024/01/05 05:11:41;;;;;;;0.30;0.30;;;;;;;;;;4969511;28;20253;-71
2024/01/05 05:14:07;;;;;;;0.20;0.20;;;;;;;;;;4976059;28;20229;-71
2024/01/05 05:16:35;;;;;;;0.20;0.20;;;;;;;;;;4981205;28;20248;-71
2024/01/05 05:19:02;;;;;;;0.30;0.30;;;;;;;;;;4982142;28;20237;-71
2024/01/05 05:21:29;;;;;;;0.20;0.20;;;;;;;;;;4982187;28;20646;-72
2024/01/05 05:23:58;;;;;;;0.30;0.30;;;;;;;;;;4987958;28;20241;-71
2024/01/05 05:26:24;;;;;;;2.20;0.90;;;;;;;;;;4981295;28;20233;-71
2024/01/05 05:28:51;;;;;;;0.30;0.30;;;;;;;;;;4986567;28;20225;-71
2024/01/05 05:31:17;;;;;;;0.30;0.30;;;;;;;;;;4981051;28;20241;-72
2024/01/05 05:33:44;;;;;;;0.30;0.30;;;;;;;;;;4983629;28;20733;-71
2024/01/05 05:36:10;;;;;;;0.20;0.20;;;;;;;;;;4983124;28;20264;-72
2024/01/05 05:38:37;;;;;;;0.30;0.30;;;;;;;;;;4988222;28;20302;-72
2024/01/05 05:41:03;;;;;;;0.30;0.30;;;;;;;;;;4987648;28;20233;-72
2024/01/05 05:43:30;;;;;;;0.30;0.30;;;;;;;;;;5003723;28;20226;-72
2024/01/05 05:45:56;;;;;;;0.20;0.20;;;;;;;;;;4990122;28;20240;-72
2024/01/05 05:48:23;;;;;;;0.30;0.30;;;;;;;;;;4986140;28;20233;-72
2024/01/05 05:50:49;;;;;;;0.20;0.20;;;;;;;;;;4988987;28;21408;-71
2024/01/05 05:53:16;;;;;;;0.30;0.30;;;;;;;;;;5016548;28;20229;-72
2024/01/05 05:55:42;;;;;;;0.30;0.30;;;;;;;;;;5009695;28;20237;-72
2024/01/05 05:58:09;;;;;;;0.30;0.30;;;;;;;;;;5011339;28;20244;-71
2024/01/05 06:00:35;;;;;;;0.30;0.30;;;;;;;;;;4989053;28;20241;-72
2024/01/05 06:03:05;;;;;;;0.20;0.20;;;;;;;;;;4990352;28;20237;-72
2024/01/05 06:05:34;;;;;;;0.30;0.30;;;;;;;;;;4993940;28;20283;-72
2024/01/05 06:08:00;;;;;;;0.20;0.20;;;;;;;;;;4989691;28;20265;-72
2024/01/05 06:10:27;;;;;;;0.30;0.30;;;;;;;;;;4984355;28;20256;-72
2024/01/05 06:12:53;;;;;;;0.30;0.30;;;;;;;;;;4990482;28;20228;-72
2024/01/05 06:15:20;;;;;;;0.30;0.30;;;;;;;;;;4986656;28;20233;-72
2024/01/05 06:17:46;;;;;;;0.30;0.30;;;;;;;;;;4989113;28;20237;-72
2024/01/05 06:20:13;;;;;;;0.30;0.30;;;;;;;;;;4977620;28;20240;-72
2024/01/05 06:22:40;;;;;;;0.30;0.30;;;;;;;;;;4973238;28;20229;-72
2024/01/05 06:25:07;;;;;;;0.30;0.30;;;;;;;;;;4981659;28;20249;-72
2024/01/05 06:27:33;;;;;;;0.30;0.30;;;;;;;;;;4990447;28;20238;-72
2024/01/05 06:30:05;;;;;;;0.20;0.20;;;;;;;;;;4979537;28;20229;-72
2024/01/05 06:32:32;;;;;;;0.27;0.27;;;;;;;;;;4977777;28;20319;-72
2024/01/05 06:34:58;;;;;;;0.30;0.30;;;;;;;;;;4981849;28;20245;-71
2024/01/05 06:37:29;;;;;;;0.30;0.30;;;;;;;;;;4978209;28;20224;-72
2024/01/05 06:39:56;;;;;;;0.30;0.30;;;;;;;;;;4980077;28;20736;-73
2024/01/05 06:42:22;;;;;;;0.30;0.30;;;;;;;;;;4977042;28;20229;-71
2024/01/05 06:44:50;;;;;;;0.20;0.20;;;;;;;;;;4974344;28;20476;-72
2024/01/05 06:47:16;;;;;;;0.20;0.20;;;;;;;;;;4974257;28;20232;-71
2024/01/05 06:49:43;;;;;;;0.30;0.30;;;;;;;;;;4977471;28;20233;-73
2024/01/05 06:52:09;;;;;;;0.30;0.30;;;;;;;;;;4987502;28;20760;-71
2024/01/05 06:54:36;;;;;;;0.30;0.30;;;;;;;;;;4983954;28;20229;-72
2024/01/05 06:57:02;;;;;;;0.20;0.20;;;;;;;;;;4980408;28;20316;-72
2024/01/05 06:59:30;;;;;;;0.20;0.20;;;;;;;;;;4990065;28;20225;-72
2024/01/05 07:01:57;;;;;;;0.20;0.20;;;;;;;;;;4989549;28;20604;-71
2024/01/05 07:04:23;;;;;;;0.20;0.20;;;;;;;;;;4990094;28;20260;-72
2024/01/05 07:06:49;;;;;;;0.30;0.30;;;;;;;;;;4986943;28;20234;-72
2024/01/05 07:09:16;;;;;;;0.20;0.20;;;;;;;;;;4973644;28;20236;-72
2024/01/05 07:11:42;;;;;;;0.20;0.20;;;;;;;;;;4984638;28;20718;-72
2024/01/05 07:14:09;;;;;;;0.20;0.20;;;;;;;;;;4981387;28;20308;-72
2024/01/05 07:16:36;;;;;;;0.30;0.30;;;;;;;;;;4986050;28;20721;-72
2024/01/05 07:19:06;;;;;;;0.30;0.30;;;;;;;;;;4988415;28;20517;-71
2024/01/05 07:21:40;;;;;;;0.40;0.40;;;;;;;;;;4985157;28;20319;-71
2024/01/05 07:24:08;;;;;;;0.20;0.20;;;;;;;;;;4986765;28;20283;-72
2024/01/05 07:26:35;;;;;;;0.30;0.30;;;;;;;;;;4979014;28;20284;-73
2024/01/05 07:29:01;;;;;;;0.30;0.30;;;;;;;;;;4977220;28;20226;-71
2024/01/05 07:31:28;;;;;;;0.30;0.30;;;;;;;;;;4989615;28;20328;-72
2024/01/05 07:33:54;;;;;;;0.30;0.30;;;;;;;;;;4985286;28;20252;-73
2024/01/05 07:36:21;;;;;;;0.30;0.30;;;;;;;;;;4986094;28;20643;-71
2024/01/05 07:38:48;;;;;;;0.30;0.30;;;;;;;;;;4988042;28;20299;-71
2024/01/05 07:41:19;;;;;;;0.20;0.20;;;;;;;;;;4988147;28;20244;-71
2024/01/05 07:43:45;;;;;;;0.30;0.30;;;;;;;;;;4988630;28;20620;-72
2024/01/05 07:46:12;;;;;;;0.30;0.30;;;;;;;;;;4987196;28;20982;-71
2024/01/05 07:48:40;;;;;;;0.60;0.60;;;;;;;;;;4987392;28;20659;-71
2024/01/05 07:51:07;;;;;;;0.20;0.20;;;;;;;;;;4993502;28;20239;-72
2024/01/05 07:53:35;;;;;;;0.30;0.30;;;;;;;;;;4989417;28;20229;-72
2024/01/05 07:56:03;;;;;;;0.30;0.30;;;;;;;;;;4989024;28;20237;-71
2024/01/05 07:58:29;;;;;;;0.20;0.20;;;;;;;;;;4987382;28;20734;-71
2024/01/05 08:00:57;;;;;;;0.30;0.30;;;;;;;;;;5005483;28;20225;-71
2024/01/05 08:03:24;;;;;;;0.30;0.30;;;;;;;;;;4990388;28;20233;-71
2024/01/05 08:05:51;;;;;;;0.30;0.30;;;;;;;;;;4993060;28;20729;-71
2024/01/05 08:08:18;;;;;;;0.30;0.30;;;;;;;;;;4986945;28;20655;-72
2024/01/05 08:10:44;;;;;;;0.40;0.40;;;;;;;;;;4985353;28;20235;-72
2024/01/05 08:13:10;;;;;;;0.30;0.30;;;;;;;;;;4990513;28;20233;-72
2024/01/05 08:15:37;;;;;;;0.30;0.30;;;;;;;;;;4985893;28;20621;-72
2024/01/05 08:18:03;;;;;;;0.30;0.30;;;;;;;;;;4988216;28;20233;-71
2024/01/05 08:20:30;;;;;;;0.20;0.20;;;;;;;;;;4990044;28;20261;-73
2024/01/05 08:23:00;;;;;;;0.30;0.30;;;;;;;;;;4983692;28;20237;-71
2024/01/05 08:25:26;;;;;;;0.30;0.30;;;;;;;;;;4994190;28;20241;-71
2024/01/05 08:27:52;;;;;;;0.30;0.30;;;;;;;;;;4991222;28;20255;-71
2024/01/05 08:30:19;;;;;;;0.20;0.20;;;;;;;;;;4990309;28;20240;-72
2024/01/05 08:32:47;;;;;;;0.30;0.30;;;;;;;;;;4986543;28;20316;-72
2024/01/05 08:35:14;;;;;;;0.30;0.30;;;;;;;;;;4987997;28;20232;-72
2024/01/05 08:37:41;;;;;;;0.30;0.30;;;;;;;;;;4985990;28;20249;-72
2024/01/05 08:40:07;;;;;;;0.23;0.23;;;;;;;;;;4990314;28;20234;-72
2024/01/05 08:42:35;;;;;;;0.20;0.20;;;;;;;;;;5001565;28;20221;-72
2024/01/05 08:45:01;;;;;;;0.30;0.30;;;;;;;;;;5011280;28;20236;-74
2024/01/05 08:47:28;;;;;;;0.30;0.30;;;;;;;;;;4990600;28;20244;-72
2024/01/05 08:49:54;;;;;;;0.30;0.30;;;;;;;;;;4984339;28;20630;-72
2024/01/05 08:52:21;;;;;;;0.30;0.30;;;;;;;;;;5021612;28;20225;-75
2024/01/05 08:54:47;;;;;;;0.30;0.30;;;;;;;;;;4998003;28;20691;-75
2024/01/05 08:57:16;;;;;;;0.30;0.30;;;;;;;;;;4980950;28;20296;-75
2024/01/05 08:59:43;;;;;;;0.30;0.30;;;;;;;;;;4985618;28;20233;-83
2024/01/05 09:02:09;;;;;;;1.70;1.60;;;;;;;;;;4979793;28;20271;-74
2024/01/05 09:04:36;;;;;;;0.30;0.30;;;;;;;;;;4991407;28;20229;-75
2024/01/05 09:07:04;;;;;;;0.30;0.30;;;;;;;;;;4992751;28;20240;-75
2024/01/05 09:09:30;;;;;;;0.30;0.30;;;;;;;;;;4993570;28;20731;-75
2024/01/05 09:11:57;;;;;;;0.30;0.30;;;;;;;;;;4990261;28;20295;-74
2024/01/05 09:14:23;;;;;;;0.30;0.30;;;;;;;;;;4990343;28;20725;-74
2024/01/05 09:16:49;;;;;;;1.07;1.07;;;;;;;;;;5004875;28;20245;-74
2024/01/05 09:19:16;;;;;;;0.30;0.30;;;;;;;;;;4992824;28;20230;-73
2024/01/05 09:21:44;;;;;;;0.30;0.30;;;;;;;;;;5007814;28;20252;-75
2024/01/05 09:24:11;;;;;;;0.30;0.30;;;;;;;;;;4985165;28;20308;-74
2024/01/05 09:26:37;;;;;;;0.20;0.20;;;;;;;;;;4990142;28;20232;-75
2024/01/05 09:29:05;;;;;;;0.20;0.20;;;;;;;;;;4993381;28;20243;-74
2024/01/05 09:31:31;;;;;;;0.30;0.30;;;;;;;;;;4992630;28;20236;-74
2024/01/05 09:33:57;;;;;;;0.40;0.40;;;;;;;;;;4995658;28;20283;-79
2024/01/05 09:36:24;;;;;;;0.20;0.20;;;;;;;;;;4988417;28;20313;-71
2024/01/05 09:38:50;;;;;;;0.30;0.30;;;;;;;;;;4990041;28;20283;-71
2024/01/05 09:41:17;;;;;;;0.30;0.30;;;;;;;;;;4990214;28;20229;-71
2024/01/05 09:43:49;;;;;;;0.30;0.30;;;;;;;;;;4988021;28;20237;-71
2024/01/05 09:46:17;;;;;;;0.30;0.30;;;;;;;;;;4983040;28;20599;-71
2024/01/05 09:48:44;;;;;;;0.20;0.20;;;;;;;;;;4985111;28;20237;-71
2024/01/05 09:51:19;;;;;;;0.23;0.23;;;;;;;;;;4982220;28;20240;-74
2024/01/05 09:53:46;;;;;;;0.30;0.30;;;;;;;;;;5002122;28;20237;-77
2024/01/05 09:56:14;;;;;;;8.80;1.20;;;;;;;;;;4986325;28;20870;-73
2024/01/05 09:58:41;;;;;;;0.30;0.30;;;;;;;;;;4989165;28;20259;-77
2024/01/05 10:01:18;;;;;;;0.30;0.30;;;;;;;;;;4988820;28;20225;-73
2024/01/05 10:03:45;;;;;;;0.30;0.30;;;;;;;;;;4989226;28;20279;-73
2024/01/05 10:06:15;;;;;;;0.30;0.30;;;;;;;;;;4989330;28;20241;-72
2024/01/05 10:08:42;;;;;;;0.30;0.30;;;;;;;;;;5005172;28;20248;-76
2024/01/05 10:11:08;;;;;;;0.30;0.30;;;;;;;;;;4989803;28;20344;-80
2024/01/05 10:13:36;;;;;;;0.30;0.30;;;;;;;;;;4986966;28;20231;-77
2024/01/05 10:16:04;;;;;;;0.20;0.20;;;;;;;;;;4988547;28;20495;-73
2024/01/05 10:18:31;;;;;;;0.30;0.30;;;;;;;;;;4986653;28;20714;-78
2024/01/05 10:21:08;;;;;;;0.30;0.30;;;;;;;;;;4988853;28;20237;-78
2024/01/05 10:23:42;;;;;;;0.30;0.30;;;;;;;;;;5002351;28;20367;-71
2024/01/05 10:26:17;;;;;;;0.23;0.23;;;;;;;;;;4985606;28;20784;-70
2024/01/05 10:28:44;;;;;;;0.30;0.30;;;;;;;;;;4984955;28;20241;-70
2024/01/05 10:31:12;;;;;;;0.30;0.30;;;;;;;;;;4993119;28;20262;-70
2024/01/05 10:33:52;;;;;;;0.30;0.30;;;;;;;;;;4989028;28;20229;-71
2024/01/05 10:36:20;;;;;;;0.30;0.30;;;;;;;;;;4988860;28;20225;-71
2024/01/05 10:38:47;;;;;;;0.30;0.30;;;;;;;;;;4988517;28;20237;-71
2024/01/05 10:41:18;;;;;;;0.30;0.30;;;;;;;;;;4990125;28;20232;-71
2024/01/05 10:43:46;;;;;;;0.30;0.30;;;;;;;;;;4989236;28;20324;-71
2024/01/05 10:46:15;;;;;;;0.30;0.30;;;;;;;;;;4988167;28;20817;-70
2024/01/05 10:48:42;;;;;;;0.40;0.40;;;;;;;;;;5004874;28;20229;-71
2024/01/05 10:51:15;;;;;;;0.30;0.30;;;;;;;;;;4990436;28;20226;-70
2024/01/05 10:53:43;;;;;;;0.30;0.30;;;;;;;;;;4990040;28;20237;-71
2024/01/05 10:56:10;;;;;;;0.30;0.30;;;;;;;;;;4989481;28;20234;-71
2024/01/05 10:58:37;;;;;;;0.30;0.30;;;;;;;;;;4989667;28;20221;-70
2024/01/05 11:01:06;;;;;;;0.40;0.40;;;;;;;;;;4986789;28;20238;-71
2024/01/05 11:03:39;;;;;;;0.30;0.30;;;;;;;;;;4988095;28;20236;-73
2024/01/05 11:06:10;;;;;;;0.30;0.30;;;;;;;;;;4991523;28;20232;-78
2024/01/05 11:08:47;;;;;;;0.63;0.63;;;;;;;;;;4986596;28;20736;-72
2024/01/05 11:11:27;;;;;;;0.30;0.30;;;;;;;;;;4988975;28;20231;-71
2024/01/05 11:14:00;;;;;;;0.30;0.30;;;;;;;;;;4989805;28;20251;-78
2024/01/05 11:16:40;;;;;;;2.00;1.90;;;;;;;;;;5001917;28;20231;-77
2024/01/05 11:19:48;;;;;;;0.30;0.30;;;;;;;;;;4988622;28;20617;-77
2024/01/05 11:22:24;;;;;;;0.30;0.30;;;;;;;;;;4987455;28;20315;-76
2024/01/05 11:24:51;;;;;;;0.30;0.30;;;;;;;;;;4988519;28;20616;-76
2024/01/05 11:27:37;;;;;;;0.30;0.30;;;;;;;;;;4988037;28;20236;-72
2024/01/05 11:30:08;;;;;;;0.30;0.30;;;;;;;;;;4982772;28;20233;-72
2024/01/05 11:32:35;;;;;;;0.30;0.30;;;;;;;;;;4993109;28;20234;-72
2024/01/05 11:35:02;;;;;;;0.30;0.30;;;;;;;;;;5005772;28;20230;-72
2024/01/05 11:37:31;;;;;;;0.30;0.30;;;;;;;;;;4993087;28;20248;-72
2024/01/05 11:39:59;;;;;;;0.30;0.30;;;;;;;;;;4973975;28;20229;-71
2024/01/05 11:42:29;;;;;;;0.30;0.30;;;;;;;;;;4982197;28;20241;-71
2024/01/05 11:44:57;;;;;;;0.30;0.30;;;;;;;;;;4979861;28;20829;-71
2024/01/05 11:47:43;;;;;;;0.30;0.30;;;;;;;;;;4981606;28;20261;-71
2024/01/05 11:50:30;;;;;;;0.30;0.30;;;;;;;;;;5001557;28;20338;-71
2024/01/05 11:53:14;;;;;;;0.83;0.83;;;;;;;;;;4973870;28;20241;-73
2024/01/05 11:55:52;;;;;;;0.30;0.30;;;;;;;;;;4970149;28;20229;-71
2024/01/05 11:58:38;;;;;;;0.30;0.30;;;;;;;;;;4974050;28;20240;-72
2024/01/05 12:01:09;;;;;;;0.30;0.30;;;;;;;;;;4971504;28;20229;-71
2024/01/05 12:03:38;;;;;;;0.30;0.30;;;;;;;;;;4969450;28;20616;-71
2024/01/05 12:06:08;;;;;;;0.30;0.30;;;;;;;;;;4969020;28;20320;-71
2024/01/05 12:08:35;;;;;;;0.30;0.30;;;;;;;;;;4974228;28;20927;-71
2024/01/05 12:11:05;;;;;;;0.30;0.30;;;;;;;;;;4977591;28;20237;-72
2024/01/05 12:13:34;;;;;;;0.30;0.30;;;;;;;;;;4967884;28;20245;-70
2024/01/05 12:16:05;;;;;;;0.30;0.30;;;;;;;;;;4972968;28;20232;-70
2024/01/05 12:18:40;;;;;;;0.30;0.30;;;;;;;;;;4973373;28;20317;-71
2024/01/05 12:21:11;;;;;;;0.20;0.20;;;;;;;;;;4972876;28;20220;-71
2024/01/05 12:23:38;;;;;;;0.30;0.30;;;;;;;;;;4972253;28;20233;-74
2024/01/05 12:26:09;;;;;;;0.40;0.40;;;;;;;;;;4972983;28;20352;-73
2024/01/05 12:28:39;;;;;;;0.83;0.83;;;;;;;;;;4973646;28;20226;-71
2024/01/05 12:31:08;;;;;;;0.30;0.30;;;;;;;;;;4974232;28;20752;-71
2024/01/05 12:33:39;;;;;;;0.30;0.30;;;;;;;;;;4974374;28;20256;-71
2024/01/05 12:36:11;;;;;;;0.30;0.30;;;;;;;;;;4974268;28;20319;-71
2024/01/05 12:38:38;;;;;;;0.30;0.30;;;;;;;;;;4977244;28;20241;-71
2024/01/05 12:41:13;;;;;;;0.30;0.30;;;;;;;;;;4978881;28;20352;-71
2024/01/05 12:43:45;;;;;;;0.20;0.20;;;;;;;;;;4978634;28;20808;-70
2024/01/05 12:46:12;;;;;;;0.30;0.30;;;;;;;;;;4975801;28;20226;-70
2024/01/05 12:48:40;;;;;;;0.30;0.30;;;;;;;;;;4975409;28;20521;-70
2024/01/05 12:51:15;;;;;;;0.30;0.30;;;;;;;;;;4978887;28;20288;-70
2024/01/05 12:53:44;;;;;;;0.30;0.30;;;;;;;;;;4978453;28;20236;-74
2024/01/05 12:56:13;;;;;;;0.30;0.30;;;;;;;;;;4977347;28;20713;-71
2024/01/05 12:58:46;;;;;;;0.30;0.30;;;;;;;;;;4979027;28;20240;-70
2024/01/05 13:01:23;;;;;;;0.23;0.23;;;;;;;;;;4978419;28;20225;-71
2024/01/05 13:03:57;;;;;;;0.30;0.30;;;;;;;;;;4978632;28;20235;-70
2024/01/05 13:06:29;;;;;;;0.63;0.63;;;;;;;;;;4978739;28;20233;-71
2024/01/05 13:08:56;;;;;;;0.30;0.30;;;;;;;;;;4980140;28;20240;-71
2024/01/05 13:11:22;;;;;;;0.30;0.30;;;;;;;;;;4979703;28;20236;-71
2024/01/05 13:13:49;;;;;;;0.30;0.30;;;;;;;;;;4978553;28;20256;-71
2024/01/05 13:16:16;;;;;;;0.40;0.40;;;;;;;;;;4978835;28;20714;-70
2024/01/05 13:18:42;;;;;;;0.30;0.30;;;;;;;;;;4979532;28;20229;-70
2024/01/05 13:21:09;;;;;;;0.30;0.30;;;;;;;;;;4979340;28;25977;-74
2024/01/05 13:23:38;;;;;;;0.30;0.30;;;;;;;;;;4978648;28;20257;-71
2024/01/05 13:26:04;;;;;;;0.30;0.30;;;;;;;;;;4981888;28;20244;-71
2024/01/05 13:28:35;;;;;;;0.30;0.30;;;;;;;;;;4978160;28;20379;-71
2024/01/05 13:31:01;;;;;;;0.30;0.30;;;;;;;;;;4981020;28;20229;-71
2024/01/05 13:33:28;;;;;;;0.60;0.60;;;;;;;;;;4980593;28;20308;-71
2024/01/05 13:35:56;;;;;;;0.30;0.30;;;;;;;;;;4977609;28;20237;-70
2024/01/05 13:38:23;;;;;;;0.30;0.30;;;;;;;;;;4977598;28;20299;-69
2024/01/05 13:40:49;;;;;;;0.30;0.30;;;;;;;;;;4974802;28;20785;-69
2024/01/05 13:43:16;;;;;;;0.30;0.30;;;;;;;;;;4976048;28;20237;-69
2024/01/05 13:45:42;;;;;;;0.30;0.30;;;;;;;;;;4975402;28;20245;-69
2024/01/05 13:48:09;;;;;;;0.30;0.30;;;;;;;;;;4976126;28;20233;-69
2024/01/05 13:50:36;;;;;;;0.30;0.30;;;;;;;;;;4973608;28;20238;-69
2024/01/05 13:53:03;;;;;;;0.30;0.30;;;;;;;;;;4977553;28;20249;-69
2024/01/05 13:55:30;;;;;;;0.30;0.30;;;;;;;;;;4974712;28;20376;-69
2024/01/05 13:57:57;;;;;;;0.30;0.30;;;;;;;;;;4978912;28;20229;-69
2024/01/05 14:00:23;;;;;;;0.30;0.30;;;;;;;;;;4975771;28;20237;-69
2024/01/05 14:02:49;;;;;;;0.30;0.30;;;;;;;;;;4978960;28;20601;-69
2024/01/05 14:05:16;;;;;;;0.30;0.30;;;;;;;;;;4977762;28;20240;-69
2024/01/05 14:07:42;;;;;;;0.30;0.30;;;;;;;;;;5004986;28;20331;-71
2024/01/05 14:10:09;;;;;;;0.23;0.23;;;;;;;;;;4976195;28;20238;-72
2024/01/05 14:12:36;;;;;;;0.30;0.30;;;;;;;;;;4973688;28;20252;-69
2024/01/05 14:15:05;;;;;;;0.20;0.20;;;;;;;;;;4987742;28;20245;-70
2024/01/05 14:17:32;;;;;;;0.30;0.30;;;;;;;;;;4971303;28;20287;-69
2024/01/05 14:19:58;;;;;;;0.30;0.30;;;;;;;;;;4976538;28;20315;-69
2024/01/05 14:22:25;;;;;;;0.30;0.30;;;;;;;;;;4993409;28;20803;-69
2024/01/05 14:25:15;;;;;;;0.30;0.30;;;;;;;;;;4976201;28;20295;-70
2024/01/05 14:27:41;;;;;;;0.30;0.30;;;;;;;;;;4980881;28;20240;-69
2024/01/05 14:30:08;;;;;;;0.30;0.30;;;;;;;;;;4981008;28;20229;-71
2024/01/05 14:32:35;;;;;;;0.23;0.23;;;;;;;;;;4979969;28;20261;-69
2024/01/05 14:35:04;;;;;;;0.30;0.30;;;;;;;;;;4977164;28;20247;-69
2024/01/05 14:37:32;;;;;;;0.37;0.37;;;;;;;;;;4974809;28;20234;-69
2024/01/05 14:39:59;;;;;;;0.30;0.30;;;;;;;;;;4976084;28;20225;-69
2024/01/05 14:42:25;;;;;;;0.33;0.33;;;;;;;;;;4975134;28;21277;-69
2024/01/05 14:45:15;;;;;;;0.30;0.30;;;;;;;;;;4974686;28;20244;-69
2024/01/05 14:47:42;;;;;;;0.30;0.30;;;;;;;;;;4975255;28;20871;-69
2024/01/05 14:50:09;;;;;;;0.30;0.30;;;;;;;;;;4976686;28;20336;-69